Terminal Aerodrome Forecast
Issued by NWS

Home | Current Version | Previous Version | Text Only | Print | Product List | Glossary On
Versions: 1 2 3 4 5 6 7 8 9 10 11 12 13 14 15 16
000
FTUS46 KMFR 061140
TAFOTH
TAF
KOTH 061140Z 0612/0712 14004KT P6SM BKN050
     FM061300 14005KT P6SM -RA BKN025
     FM061700 35008KT P6SM VCSH BKN040
     FM062000 35016G25KT P6SM SCT040
     FM070600 35007KT P6SM BKN025=

USA.gov is the U.S. government's official web portal to all federal, state and local government web resources and services.